LRCK Weather Reports


Display with metric or nautical units.
time (UTC)temp
F
wind
direction
speed
MPH
gust
MPH
rain 1hr
in
rain 24hr
in
rain mn
in
humidity
%
barometer
mb
20220809224030 75 350 26.0 0.0 0.00 0.00 0.00 65 1015.0
20220809221029 75 350 26.0 0.0 0.00 0.00 0.00 65 1015.0
20220809214030 75 340 18.0 0.0 0.00 0.00 0.00 65 1015.0
20220809211030 75 330 16.0 0.0 0.00 0.00 0.00 57 1015.0
20220809204029 77 350 21.0 0.0 0.00 0.00 0.00 51 1015.0
20220809201030 77 340 15.0 0.0 0.00 0.00 0.00 47 1015.0
20220809194030 77 350 16.0 0.0 0.00 0.00 0.00 47 1015.0
20220809191030 77 350 15.0 0.0 0.00 0.00 0.00 47 1014.0
20220809184029 77 340 13.0 0.0 0.00 0.00 0.00 44 1014.0
20220809181029 77 340 8.0 0.0 0.00 0.00 0.00 44 1014.0
20220809174030 81 10 10.0 0.0 0.00 0.00 0.00 39 1014.0
20220809171029 82 10 10.0 0.0 0.00 0.00 0.00 37 1014.0
20220809164033 86 360 14.0 0.0 0.00 0.00 0.00 35 1014.0
20220809161029 86 10 15.0 0.0 0.00 0.00 0.00 35 1014.0
20220809154029 88 20 17.0 0.0 0.00 0.00 0.00 35 1014.0
20220809151029 90 60 15.0 0.0 0.00 0.00 0.00 33 1014.0
20220809144030 90 60 14.0 0.0 0.00 0.00 0.00 31 1014.0
20220809141031 91 50 15.0 0.0 0.00 0.00 0.00 21 1014.0
20220809134030 93 40 16.0 0.0 0.00 0.00 0.00 19 1014.0
20220809131029 93 40 17.0 0.0 0.00 0.00 0.00 21 1014.0
20220809124029 93 30 15.0 0.0 0.00 0.00 0.00 21 1014.0
20220809121030 93 30 15.0 0.0 0.00 0.00 0.00 21 1015.0
20220809114029 93 30 15.0 0.0 0.00 0.00 0.00 23 1015.0
20220809111030 93 40 14.0 0.0 0.00 0.00 0.00 21 1015.0
20220809104029 91 40 15.0 0.0 0.00 0.00 0.00 21 1015.0
20220809101030 91 40 17.0 0.0 0.00 0.00 0.00 24 1015.0
20220809094029 91 50 15.0 0.0 0.00 0.00 0.00 28 1015.0
20220809091029 91 40 15.0 0.0 0.00 0.00 0.00 34 1015.0
20220809084029 90 30 14.0 0.0 0.00 0.00 0.00 36 1015.0
20220809081030 88 30 11.0 0.0 0.00 0.00 0.00 43 1016.0
20220809074029 86 30 13.0 0.0 0.00 0.00 0.00 46 1016.0
20220809071029 86 20 13.0 0.0 0.00 0.00 0.00 46 1015.0
20220809064030 82 30 13.0 0.0 0.00 0.00 0.00 51 1015.0
20220809061030 81 360 13.0 0.0 0.00 0.00 0.00 54 1015.0
20220809054031 79 360 15.0 0.0 0.00 0.00 0.00 58 1015.0
20220809051032 75 350 16.0 0.0 0.00 0.00 0.00 61 1015.0
20220809044029 73 350 14.0 0.0 0.00 0.00 0.00 65 1015.0
20220809041030 72 350 13.0 0.0 0.00 0.00 0.00 69 1015.0
20220809034029 70 360 13.0 0.0 0.00 0.00 0.00 73 1015.0
20220809031030 70 360 11.0 0.0 0.00 0.00 0.00 73 1015.0
20220809024029 70 360 11.0 0.0 0.00 0.00 0.00 73 1015.0
20220809021030 72 340 13.0 0.0 0.00 0.00 0.00 69 1015.0
20220809014029 72 340 13.0 0.0 0.00 0.00 0.00 69 1015.0
20220809011030 72 350 11.0 0.0 0.00 0.00 0.00 69 1015.0
20220809004030 72 340 11.0 0.0 0.00 0.00 0.00 69 1015.0
20220809001030 72 340 10.0 0.0 0.00 0.00 0.00 65 1015.0
20220808231030 73 320 11.0 0.0 0.00 0.00 0.00 57 1015.0